Kezdőlap
METAR-TAF:

METAR-TAF

Repülőterek :

Porto Alegre, Rio Grande do Sul, Brazília

földrajzi szélesség: 30-00S, földrajzi hosszúság: 051-11W, magasság: 3 m

METAR: hiányzik

Idő: 18:09 (21:09 UTC)

Előrejelzés

A jelentés 6 órával és 9 perccel ezelõtt készült, 15:00 UTC
Az előrejelzés 12-én 18 óra UTC és 13-én 18 óra UTC között érvényes
Északi szél 10 kt
Látótávolság 10 km, vagy több
felhőtlen 1500 m magasságban, és nincs gomolyfelhõ
12-én 20 óra UTC és 12-én 22 óra UTC között fokozatosan kialakuló
Északkeleti szél 5 kt
13-én 08 óra UTC és 13-én 12 óra UTC között ideiglenes
Látótávolság: 7000 m
13-én 12 óra UTC és 13-én 14 óra UTC között fokozatosan kialakuló
Északi szél 10 kt

TAF: SBPA 121500Z 1218/1318 35010KT CAVOK TN19/1308Z TX29/1318Z BECMG 1220/1222 04005KT TEMPO 1308/1312 7000 NSC BECMG 1312/1314 35010KT RMK PDW

Meteorológiai megfigyelések és előrejelzések több, mint 4000 repülőtéren (METAR és TAF jelentéseket).

A térképen piros és sárga pontok jelzik az elérhető meteorológiai állomásokat.

Mozgassa az egeret a pont fölött, hogy megjelenjen az állomás neve.

Azután kattintson az időjárási megfigyelések és előrejelzések megtekintéséhez.

A térkép megváltoztatása: kattintson a fekete keresztel jelölt zöld gombra ráközelítéshez, a vonallal jelölt zöld gombra távolításhoz, vagy a zöld nyilakra a szomszédos térképek eléréséhez.


METAR-TAF: